KIKV

Ankeny Regional Airport

Ankeny, Iowa, USA
METAR KIKV 150315Z AUTO 04007KT 4SM -RA BKN055 OVC110 20/19 A2993 RMK AO2
Observed Flight Rules
Aug-15 @ 03:15 UTC (21 minutes ago) Marginal Visual Flight Rules
Wind Visibility Clouds Conditions
40° at 7 knots 4 miles
  • Broken at 5,500' AGL
  • Overcast at 11,000' AGL
  • Light Rain
Temperatures Readings
Current 20°C / 68°F
Dewpoint 19°C / 66°F
Humidity 94%
Altimeter 29.93" Hg
Pressure 1014 hPa
Elevation 275
METAR KIKV 150315Z AUTO 04007KT 4SM -RA BKN055 OVC110 20/19 A2993 RMK AO2
Observed Flight Rules
Aug-15 @ 03:15 UTC
(21 minutes ago)
MVFR
Wind Visibility
40° at 7 knots 4 miles
Clouds
  • Broken at 5,500' AGL
  • Overcast at 11,000' AGL
Conditions
  • Light Rain
Temperature Dewpoint
20°C / 68°F 19°C / 66°F
Humidity Altimeter Pressure
94% 29.93" Hg 1014 hPa